sensor_id;sensor_type;location;lat;lon;timestamp;temperature;humidity
67974;DHT22;54756;51.140;6.952;2024-02-16T00:00:59;12.60;99.90
67974;DHT22;54756;51.140;6.952;2024-02-16T00:03:00;12.60;99.90
67974;DHT22;54756;51.140;6.952;2024-02-16T00:05:00;12.60;99.90
67974;DHT22;54756;51.140;6.952;2024-02-16T00:07:01;12.60;99.90
67974;DHT22;54756;51.140;6.952;2024-02-16T00:09:02;12.60;99.90
67974;DHT22;54756;51.140;6.952;2024-02-16T00:11:02;12.60;99.90
67974;DHT22;54756;51.140;6.952;2024-02-16T00:13:03;12.60;99.90
67974;DHT22;54756;51.140;6.952;2024-02-16T00:15:04;12.60;99.90
67974;DHT22;54756;51.140;6.952;2024-02-16T00:17:05;12.60;99.90
67974;DHT22;54756;51.140;6.952;2024-02-16T00:19:05;12.60;99.90
67974;DHT22;54756;51.140;6.952;2024-02-16T00:21:06;12.70;99.90
67974;DHT22;54756;51.140;6.952;2024-02-16T00:23:06;12.70;99.90
67974;DHT22;54756;51.140;6.952;2024-02-16T00:25:07;12.70;99.90
67974;DHT22;54756;51.140;6.952;2024-02-16T00:27:08;12.70;99.90
67974;DHT22;54756;51.140;6.952;2024-02-16T00:29:08;12.70;99.90
67974;DHT22;54756;51.140;6.952;2024-02-16T00:31:09;12.70;99.90
67974;DHT22;54756;51.140;6.952;2024-02-16T00:33:10;12.70;99.90
67974;DHT22;54756;51.140;6.952;2024-02-16T00:35:11;12.70;99.90
67974;DHT22;54756;51.140;6.952;2024-02-16T00:37:12;12.60;99.90
67974;DHT22;54756;51.140;6.952;2024-02-16T00:39:13;12.70;99.90
67974;DHT22;54756;51.140;6.952;2024-02-16T00:41:21;12.70;99.90
67974;DHT22;54756;51.140;6.952;2024-02-16T00:43:21;12.70;99.90
67974;DHT22;54756;51.140;6.952;2024-02-16T00:45:22;12.70;99.90
67974;DHT22;54756;51.140;6.952;2024-02-16T00:47:23;12.70;99.90
67974;DHT22;54756;51.140;6.952;2024-02-16T00:49:24;12.70;99.90
67974;DHT22;54756;51.140;6.952;2024-02-16T00:51:24;12.70;99.90
67974;DHT22;54756;51.140;6.952;2024-02-16T00:53:26;12.70;99.90
67974;DHT22;54756;51.140;6.952;2024-02-16T00:55:26;12.70;99.90
67974;DHT22;54756;51.140;6.952;2024-02-16T00:57:27;12.70;99.90
67974;DHT22;54756;51.140;6.952;2024-02-16T00:59:31;12.70;99.90
67974;DHT22;54756;51.140;6.952;2024-02-16T01:01:31;12.70;99.90
67974;DHT22;54756;51.140;6.952;2024-02-16T01:03:32;12.70;99.90
67974;DHT22;54756;51.140;6.952;2024-02-16T01:05:33;12.70;99.90
67974;DHT22;54756;51.140;6.952;2024-02-16T01:07:33;12.80;99.90
67974;DHT22;54756;51.140;6.952;2024-02-16T01:09:34;12.80;99.90
67974;DHT22;54756;51.140;6.952;2024-02-16T01:11:34;12.80;99.90
67974;DHT22;54756;51.140;6.952;2024-02-16T01:13:35;12.80;99.90
67974;DHT22;54756;51.140;6.952;2024-02-16T01:15:36;12.80;99.90
67974;DHT22;54756;51.140;6.952;2024-02-16T01:17:37;12.80;99.90
67974;DHT22;54756;51.140;6.952;2024-02-16T01:19:39;12.80;99.90
67974;DHT22;54756;51.140;6.952;2024-02-16T01:21:40;12.80;99.90
67974;DHT22;54756;51.140;6.952;2024-02-16T01:23:41;12.80;99.90
67974;DHT22;54756;51.140;6.952;2024-02-16T01:25:42;12.80;99.90
67974;DHT22;54756;51.140;6.952;2024-02-16T01:27:42;12.80;99.90
67974;DHT22;54756;51.140;6.952;2024-02-16T01:29:43;12.80;99.90
67974;DHT22;54756;51.140;6.952;2024-02-16T01:31:43;12.90;99.90
67974;DHT22;54756;51.140;6.952;2024-02-16T01:33:44;12.80;99.90
67974;DHT22;54756;51.140;6.952;2024-02-16T01:35:44;12.80;99.90
67974;DHT22;54756;51.140;6.952;2024-02-16T01:37:46;12.90;99.90
67974;DHT22;54756;51.140;6.952;2024-02-16T01:39:47;12.80;99.90
67974;DHT22;54756;51.140;6.952;2024-02-16T01:41:47;12.80;99.90
67974;DHT22;54756;51.140;6.952;2024-02-16T01:43:48;12.80;99.90
67974;DHT22;54756;51.140;6.952;2024-02-16T01:45:49;12.80;99.90
67974;DHT22;54756;51.140;6.952;2024-02-16T01:47:50;12.90;99.90
67974;DHT22;54756;51.140;6.952;2024-02-16T01:49:51;12.90;99.90
67974;DHT22;54756;51.140;6.952;2024-02-16T01:51:52;12.90;99.90
67974;DHT22;54756;51.140;6.952;2024-02-16T01:53:53;12.90;99.90
67974;DHT22;54756;51.140;6.952;2024-02-16T01:55:55;12.90;99.90
67974;DHT22;54756;51.140;6.952;2024-02-16T01:57:58;12.90;99.90
67974;DHT22;54756;51.140;6.952;2024-02-16T02:00:00;12.90;99.90
67974;DHT22;54756;51.140;6.952;2024-02-16T02:02:00;12.90;99.90
67974;DHT22;54756;51.140;6.952;2024-02-16T02:04:01;12.90;99.90
67974;DHT22;54756;51.140;6.952;2024-02-16T02:06:02;12.90;99.90
67974;DHT22;54756;51.140;6.952;2024-02-16T02:08:10;12.90;99.90
67974;DHT22;54756;51.140;6.952;2024-02-16T02:10:11;13.00;99.90
67974;DHT22;54756;51.140;6.952;2024-02-16T02:12:13;13.00;99.90
67974;DHT22;54756;51.140;6.952;2024-02-16T02:14:14;13.00;99.90
67974;DHT22;54756;51.140;6.952;2024-02-16T02:16:15;13.00;99.90
67974;DHT22;54756;51.140;6.952;2024-02-16T02:18:17;13.00;99.90
67974;DHT22;54756;51.140;6.952;2024-02-16T02:20:18;13.00;99.90
67974;DHT22;54756;51.140;6.952;2024-02-16T02:22:19;13.00;99.90
67974;DHT22;54756;51.140;6.952;2024-02-16T02:24:20;12.90;99.90
67974;DHT22;54756;51.140;6.952;2024-02-16T02:26:22;13.00;99.90
67974;DHT22;54756;51.140;6.952;2024-02-16T02:28:22;13.00;99.90
67974;DHT22;54756;51.140;6.952;2024-02-16T02:30:24;13.00;99.90
67974;DHT22;54756;51.140;6.952;2024-02-16T02:32:24;13.00;99.90
67974;DHT22;54756;51.140;6.952;2024-02-16T02:34:25;13.00;99.90
67974;DHT22;54756;51.140;6.952;2024-02-16T02:36:26;13.00;99.90
67974;DHT22;54756;51.140;6.952;2024-02-16T02:38:26;12.90;99.90
67974;DHT22;54756;51.140;6.952;2024-02-16T02:40:27;13.00;99.90
67974;DHT22;54756;51.140;6.952;2024-02-16T02:42:28;13.00;99.90
67974;DHT22;54756;51.140;6.952;2024-02-16T02:44:28;13.00;99.90
67974;DHT22;54756;51.140;6.952;2024-02-16T02:46:31;12.90;99.90
67974;DHT22;54756;51.140;6.952;2024-02-16T02:48:32;13.00;99.90
67974;DHT22;54756;51.140;6.952;2024-02-16T02:50:32;13.00;99.90
67974;DHT22;54756;51.140;6.952;2024-02-16T02:52:33;13.00;99.90
67974;DHT22;54756;51.140;6.952;2024-02-16T02:54:34;13.00;99.90
67974;DHT22;54756;51.140;6.952;2024-02-16T02:56:34;13.00;99.90
67974;DHT22;54756;51.140;6.952;2024-02-16T02:58:35;13.00;99.90
67974;DHT22;54756;51.140;6.952;2024-02-16T03:00:35;13.00;99.90
67974;DHT22;54756;51.140;6.952;2024-02-16T03:02:37;13.00;99.90
67974;DHT22;54756;51.140;6.952;2024-02-16T03:04:38;13.00;99.90
67974;DHT22;54756;51.140;6.952;2024-02-16T03:06:38;13.00;99.90
67974;DHT22;54756;51.140;6.952;2024-02-16T03:08:39;13.00;99.90
67974;DHT22;54756;51.140;6.952;2024-02-16T03:10:40;13.00;99.90
67974;DHT22;54756;51.140;6.952;2024-02-16T03:12:41;13.00;99.90
67974;DHT22;54756;51.140;6.952;2024-02-16T03:14:42;12.90;99.90
67974;DHT22;54756;51.140;6.952;2024-02-16T03:16:42;13.00;99.90
67974;DHT22;54756;51.140;6.952;2024-02-16T03:18:43;13.00;99.90
67974;DHT22;54756;51.140;6.952;2024-02-16T03:20:44;13.00;99.90
67974;DHT22;54756;51.140;6.952;2024-02-16T03:22:48;12.90;99.90
67974;DHT22;54756;51.140;6.952;2024-02-16T03:24:49;12.90;99.90
67974;DHT22;54756;51.140;6.952;2024-02-16T03:26:49;12.90;99.90
67974;DHT22;54756;51.140;6.952;2024-02-16T03:28:50;12.90;99.90
67974;DHT22;54756;51.140;6.952;2024-02-16T03:30:50;12.90;99.90
67974;DHT22;54756;51.140;6.952;2024-02-16T03:32:51;12.90;99.90
67974;DHT22;54756;51.140;6.952;2024-02-16T03:34:52;12.90;99.90
67974;DHT22;54756;51.140;6.952;2024-02-16T03:36:53;12.90;99.90
67974;DHT22;54756;51.140;6.952;2024-02-16T03:38:54;12.80;99.90
67974;DHT22;54756;51.140;6.952;2024-02-16T03:40:54;12.80;99.90
67974;DHT22;54756;51.140;6.952;2024-02-16T03:42:56;12.80;99.90
67974;DHT22;54756;51.140;6.952;2024-02-16T03:44:56;12.80;99.90
67974;DHT22;54756;51.140;6.952;2024-02-16T03:46:58;12.80;99.90
67974;DHT22;54756;51.140;6.952;2024-02-16T03:48:59;12.80;99.90
67974;DHT22;54756;51.140;6.952;2024-02-16T03:50:59;12.80;99.90
67974;DHT22;54756;51.140;6.952;2024-02-16T03:53:00;12.80;99.90
67974;DHT22;54756;51.140;6.952;2024-02-16T03:55:01;12.80;99.90
67974;DHT22;54756;51.140;6.952;2024-02-16T03:57:01;12.80;99.90
67974;DHT22;54756;51.140;6.952;2024-02-16T03:59:04;12.80;99.90
67974;DHT22;54756;51.140;6.952;2024-02-16T04:01:05;12.80;99.90
67974;DHT22;54756;51.140;6.952;2024-02-16T04:03:07;12.80;99.90
67974;DHT22;54756;51.140;6.952;2024-02-16T04:05:08;12.80;99.90
67974;DHT22;54756;51.140;6.952;2024-02-16T04:07:08;12.80;99.90
67974;DHT22;54756;51.140;6.952;2024-02-16T04:09:09;12.80;99.90
67974;DHT22;54756;51.140;6.952;2024-02-16T04:11:13;12.80;99.90
67974;DHT22;54756;51.140;6.952;2024-02-16T04:13:15;12.80;99.90
67974;DHT22;54756;51.140;6.952;2024-02-16T04:15:16;12.80;99.90
67974;DHT22;54756;51.140;6.952;2024-02-16T04:17:16;12.80;99.90
67974;DHT22;54756;51.140;6.952;2024-02-16T04:19:17;12.80;99.90
67974;DHT22;54756;51.140;6.952;2024-02-16T04:21:18;12.80;99.90
67974;DHT22;54756;51.140;6.952;2024-02-16T04:23:18;12.80;99.90
67974;DHT22;54756;51.140;6.952;2024-02-16T04:25:19;12.80;99.90
67974;DHT22;54756;51.140;6.952;2024-02-16T04:27:20;12.80;99.90
67974;DHT22;54756;51.140;6.952;2024-02-16T04:29:20;12.80;99.90
67974;DHT22;54756;51.140;6.952;2024-02-16T04:31:21;12.80;99.90
67974;DHT22;54756;51.140;6.952;2024-02-16T04:33:22;12.80;99.90
67974;DHT22;54756;51.140;6.952;2024-02-16T04:35:22;12.80;99.90
67974;DHT22;54756;51.140;6.952;2024-02-16T04:37:23;12.80;99.90
67974;DHT22;54756;51.140;6.952;2024-02-16T04:39:24;12.80;99.90
67974;DHT22;54756;51.140;6.952;2024-02-16T04:41:24;12.80;99.90
67974;DHT22;54756;51.140;6.952;2024-02-16T04:43:25;12.80;99.90
67974;DHT22;54756;51.140;6.952;2024-02-16T04:45:26;12.80;99.90
67974;DHT22;54756;51.140;6.952;2024-02-16T04:47:27;12.80;99.90
67974;DHT22;54756;51.140;6.952;2024-02-16T04:49:28;12.80;99.90
67974;DHT22;54756;51.140;6.952;2024-02-16T04:51:28;12.80;99.90
67974;DHT22;54756;51.140;6.952;2024-02-16T04:53:29;12.80;99.90
67974;DHT22;54756;51.140;6.952;2024-02-16T04:55:30;12.80;99.90
67974;DHT22;54756;51.140;6.952;2024-02-16T04:57:32;12.80;99.90
67974;DHT22;54756;51.140;6.952;2024-02-16T04:59:33;12.80;99.90
67974;DHT22;54756;51.140;6.952;2024-02-16T05:01:33;12.80;99.90
67974;DHT22;54756;51.140;6.952;2024-02-16T05:03:34;12.80;99.90
67974;DHT22;54756;51.140;6.952;2024-02-16T05:05:35;12.80;99.90
67974;DHT22;54756;51.140;6.952;2024-02-16T05:07:35;12.80;99.90
67974;DHT22;54756;51.140;6.952;2024-02-16T05:09:36;12.70;99.90
67974;DHT22;54756;51.140;6.952;2024-02-16T05:11:37;12.70;99.90
67974;DHT22;54756;51.140;6.952;2024-02-16T05:13:37;12.70;99.90
67974;DHT22;54756;51.140;6.952;2024-02-16T05:15:38;12.70;99.90
67974;DHT22;54756;51.140;6.952;2024-02-16T05:17:39;12.70;99.90
67974;DHT22;54756;51.140;6.952;2024-02-16T05:19:40;12.70;99.90
67974;DHT22;54756;51.140;6.952;2024-02-16T05:21:40;12.70;99.90
67974;DHT22;54756;51.140;6.952;2024-02-16T05:23:41;12.70;99.90
67974;DHT22;54756;51.140;6.952;2024-02-16T05:25:42;12.70;99.90
67974;DHT22;54756;51.140;6.952;2024-02-16T05:27:42;12.70;99.90
67974;DHT22;54756;51.140;6.952;2024-02-16T05:29:43;12.70;99.90
67974;DHT22;54756;51.140;6.952;2024-02-16T05:31:44;12.70;99.90
67974;DHT22;54756;51.140;6.952;2024-02-16T05:33:48;12.70;99.90
67974;DHT22;54756;51.140;6.952;2024-02-16T05:35:48;12.60;99.90
67974;DHT22;54756;51.140;6.952;2024-02-16T05:37:55;12.60;99.90
67974;DHT22;54756;51.140;6.952;2024-02-16T05:39:55;12.60;99.90
67974;DHT22;54756;51.140;6.952;2024-02-16T05:42:08;12.60;99.90
67974;DHT22;54756;51.140;6.952;2024-02-16T05:44:09;12.60;99.90
67974;DHT22;54756;51.140;6.952;2024-02-16T05:46:13;12.60;99.90
67974;DHT22;54756;51.140;6.952;2024-02-16T05:48:14;12.60;99.90
67974;DHT22;54756;51.140;6.952;2024-02-16T05:50:14;12.60;99.90
67974;DHT22;54756;51.140;6.952;2024-02-16T05:52:15;12.60;99.90
67974;DHT22;54756;51.140;6.952;2024-02-16T05:54:19;12.60;99.90
67974;DHT22;54756;51.140;6.952;2024-02-16T05:56:19;12.60;99.90
67974;DHT22;54756;51.140;6.952;2024-02-16T05:58:20;12.60;99.90
67974;DHT22;54756;51.140;6.952;2024-02-16T06:00:21;12.60;99.90
67974;DHT22;54756;51.140;6.952;2024-02-16T06:02:21;12.60;99.90
67974;DHT22;54756;51.140;6.952;2024-02-16T06:04:25;12.60;99.90
67974;DHT22;54756;51.140;6.952;2024-02-16T06:06:26;12.60;99.90
67974;DHT22;54756;51.140;6.952;2024-02-16T06:08:27;12.60;99.90
67974;DHT22;54756;51.140;6.952;2024-02-16T06:10:27;12.60;99.90
67974;DHT22;54756;51.140;6.952;2024-02-16T06:12:28;12.60;99.90
67974;DHT22;54756;51.140;6.952;2024-02-16T06:14:32;12.60;99.90
67974;DHT22;54756;51.140;6.952;2024-02-16T06:16:33;12.60;99.90
67974;DHT22;54756;51.140;6.952;2024-02-16T06:18:35;12.60;99.90
67974;DHT22;54756;51.140;6.952;2024-02-16T06:20:36;12.60;99.90
67974;DHT22;54756;51.140;6.952;2024-02-16T06:22:37;12.60;99.90
67974;DHT22;54756;51.140;6.952;2024-02-16T06:24:37;12.60;99.90
67974;DHT22;54756;51.140;6.952;2024-02-16T06:26:38;12.60;99.90
67974;DHT22;54756;51.140;6.952;2024-02-16T06:28:38;12.60;99.90
67974;DHT22;54756;51.140;6.952;2024-02-16T06:30:39;12.60;99.90
67974;DHT22;54756;51.140;6.952;2024-02-16T06:32:40;12.60;99.90
67974;DHT22;54756;51.140;6.952;2024-02-16T06:34:40;12.60;99.90
67974;DHT22;54756;51.140;6.952;2024-02-16T06:36:44;12.60;99.90
67974;DHT22;54756;51.140;6.952;2024-02-16T06:38:44;12.60;99.90
67974;DHT22;54756;51.140;6.952;2024-02-16T06:40:45;12.60;99.90
67974;DHT22;54756;51.140;6.952;2024-02-16T06:42:46;12.60;99.90
67974;DHT22;54756;51.140;6.952;2024-02-16T06:44:46;12.60;99.90
67974;DHT22;54756;51.140;6.952;2024-02-16T06:46:47;12.60;99.90
67974;DHT22;54756;51.140;6.952;2024-02-16T06:48:47;12.60;99.90
67974;DHT22;54756;51.140;6.952;2024-02-16T06:50:48;12.60;99.90
67974;DHT22;54756;51.140;6.952;2024-02-16T06:52:49;12.60;99.90
67974;DHT22;54756;51.140;6.952;2024-02-16T06:54:49;12.60;99.90
67974;DHT22;54756;51.140;6.952;2024-02-16T06:56:50;12.60;99.90
67974;DHT22;54756;51.140;6.952;2024-02-16T06:58:54;12.60;99.90
67974;DHT22;54756;51.140;6.952;2024-02-16T07:00:54;12.60;99.90
67974;DHT22;54756;51.140;6.952;2024-02-16T07:02:55;12.60;99.90
67974;DHT22;54756;51.140;6.952;2024-02-16T07:04:55;12.60;99.90
67974;DHT22;54756;51.140;6.952;2024-02-16T07:06:56;12.60;99.90
67974;DHT22;54756;51.140;6.952;2024-02-16T07:08:56;12.60;99.90
67974;DHT22;54756;51.140;6.952;2024-02-16T07:10:57;12.60;99.90
67974;DHT22;54756;51.140;6.952;2024-02-16T07:12:58;12.60;99.90
67974;DHT22;54756;51.140;6.952;2024-02-16T07:14:58;12.60;99.90
67974;DHT22;54756;51.140;6.952;2024-02-16T07:16:59;12.60;99.90
67974;DHT22;54756;51.140;6.952;2024-02-16T07:19:00;12.60;99.90
67974;DHT22;54756;51.140;6.952;2024-02-16T07:21:01;12.70;99.90
67974;DHT22;54756;51.140;6.952;2024-02-16T07:23:01;12.60;99.90
67974;DHT22;54756;51.140;6.952;2024-02-16T07:25:02;12.70;99.90
67974;DHT22;54756;51.140;6.952;2024-02-16T07:27:04;12.70;99.90
67974;DHT22;54756;51.140;6.952;2024-02-16T07:29:05;12.70;99.90
67974;DHT22;54756;51.140;6.952;2024-02-16T07:31:06;12.70;99.90
67974;DHT22;54756;51.140;6.952;2024-02-16T07:33:07;12.70;99.90
67974;DHT22;54756;51.140;6.952;2024-02-16T07:35:07;12.70;99.90
67974;DHT22;54756;51.140;6.952;2024-02-16T07:37:10;12.70;99.90
67974;DHT22;54756;51.140;6.952;2024-02-16T07:39:11;12.70;99.90
67974;DHT22;54756;51.140;6.952;2024-02-16T07:41:12;12.70;99.90
67974;DHT22;54756;51.140;6.952;2024-02-16T07:43:13;12.70;99.90
67974;DHT22;54756;51.140;6.952;2024-02-16T07:45:14;12.80;99.90
67974;DHT22;54756;51.140;6.952;2024-02-16T07:47:14;12.80;99.90
67974;DHT22;54756;51.140;6.952;2024-02-16T07:49:16;12.80;99.90
67974;DHT22;54756;51.140;6.952;2024-02-16T07:51:16;12.80;99.90
67974;DHT22;54756;51.140;6.952;2024-02-16T07:53:17;12.80;99.90
67974;DHT22;54756;51.140;6.952;2024-02-16T07:55:18;12.80;99.90
67974;DHT22;54756;51.140;6.952;2024-02-16T07:57:18;12.80;99.90
67974;DHT22;54756;51.140;6.952;2024-02-16T07:59:19;12.80;99.90
67974;DHT22;54756;51.140;6.952;2024-02-16T08:01:19;12.80;99.90
67974;DHT22;54756;51.140;6.952;2024-02-16T08:03:20;12.80;99.90
67974;DHT22;54756;51.140;6.952;2024-02-16T08:05:20;12.90;99.90
67974;DHT22;54756;51.140;6.952;2024-02-16T08:07:22;12.90;99.90
67974;DHT22;54756;51.140;6.952;2024-02-16T08:09:23;12.90;99.90
67974;DHT22;54756;51.140;6.952;2024-02-16T08:11:23;12.90;99.90
67974;DHT22;54756;51.140;6.952;2024-02-16T08:13:24;12.90;99.90
67974;DHT22;54756;51.140;6.952;2024-02-16T08:15:25;12.90;99.90
67974;DHT22;54756;51.140;6.952;2024-02-16T08:17:26;12.90;99.90
67974;DHT22;54756;51.140;6.952;2024-02-16T08:19:35;13.00;99.90
67974;DHT22;54756;51.140;6.952;2024-02-16T08:21:36;13.00;99.90
67974;DHT22;54756;51.140;6.952;2024-02-16T08:23:36;13.00;99.90
67974;DHT22;54756;51.140;6.952;2024-02-16T08:25:38;13.00;99.90
67974;DHT22;54756;51.140;6.952;2024-02-16T08:27:38;13.00;99.90
67974;DHT22;54756;51.140;6.952;2024-02-16T08:29:39;13.00;99.90
67974;DHT22;54756;51.140;6.952;2024-02-16T08:31:40;13.00;99.90
67974;DHT22;54756;51.140;6.952;2024-02-16T08:33:41;13.00;99.90
67974;DHT22;54756;51.140;6.952;2024-02-16T08:35:42;13.10;99.90
67974;DHT22;54756;51.140;6.952;2024-02-16T08:37:42;13.00;99.90
67974;DHT22;54756;51.140;6.952;2024-02-16T08:39:43;13.10;99.90
67974;DHT22;54756;51.140;6.952;2024-02-16T08:41:43;13.10;99.90
67974;DHT22;54756;51.140;6.952;2024-02-16T08:43:44;13.10;99.90
67974;DHT22;54756;51.140;6.952;2024-02-16T08:45:45;13.10;99.90
67974;DHT22;54756;51.140;6.952;2024-02-16T08:47:45;13.10;99.90
67974;DHT22;54756;51.140;6.952;2024-02-16T08:49:46;13.10;99.90
67974;DHT22;54756;51.140;6.952;2024-02-16T08:51:47;13.10;99.90
67974;DHT22;54756;51.140;6.952;2024-02-16T08:53:48;13.20;99.90
67974;DHT22;54756;51.140;6.952;2024-02-16T08:55:49;13.20;99.90
67974;DHT22;54756;51.140;6.952;2024-02-16T08:57:49;13.20;99.90
67974;DHT22;54756;51.140;6.952;2024-02-16T08:59:50;13.20;99.90
67974;DHT22;54756;51.140;6.952;2024-02-16T09:01:50;13.20;99.90
67974;DHT22;54756;51.140;6.952;2024-02-16T09:03:51;13.20;99.90
67974;DHT22;54756;51.140;6.952;2024-02-16T09:05:54;13.30;99.90
67974;DHT22;54756;51.140;6.952;2024-02-16T09:07:54;13.30;99.90
67974;DHT22;54756;51.140;6.952;2024-02-16T09:09:55;13.30;99.90
67974;DHT22;54756;51.140;6.952;2024-02-16T09:11:56;13.30;99.90
67974;DHT22;54756;51.140;6.952;2024-02-16T09:13:58;13.40;99.90
67974;DHT22;54756;51.140;6.952;2024-02-16T09:15:59;13.40;99.90
67974;DHT22;54756;51.140;6.952;2024-02-16T09:17:59;13.40;99.90
67974;DHT22;54756;51.140;6.952;2024-02-16T09:20:00;13.40;99.90
67974;DHT22;54756;51.140;6.952;2024-02-16T09:22:03;13.40;99.90
67974;DHT22;54756;51.140;6.952;2024-02-16T09:24:06;13.40;99.90
67974;DHT22;54756;51.140;6.952;2024-02-16T09:26:10;13.40;99.90
67974;DHT22;54756;51.140;6.952;2024-02-16T09:28:11;13.40;99.90
67974;DHT22;54756;51.140;6.952;2024-02-16T09:30:12;13.40;99.90
67974;DHT22;54756;51.140;6.952;2024-02-16T09:32:13;13.40;99.90
67974;DHT22;54756;51.140;6.952;2024-02-16T09:34:14;13.40;99.90
67974;DHT22;54756;51.140;6.952;2024-02-16T09:36:14;13.50;99.90
67974;DHT22;54756;51.140;6.952;2024-02-16T09:38:15;13.50;99.90
67974;DHT22;54756;51.140;6.952;2024-02-16T09:40:15;13.50;99.90
67974;DHT22;54756;51.140;6.952;2024-02-16T09:42:18;13.50;99.90
67974;DHT22;54756;51.140;6.952;2024-02-16T09:44:20;13.50;99.90
67974;DHT22;54756;51.140;6.952;2024-02-16T09:46:23;13.50;99.90
67974;DHT22;54756;51.140;6.952;2024-02-16T09:48:26;13.50;99.90
67974;DHT22;54756;51.140;6.952;2024-02-16T09:50:29;13.50;99.90
67974;DHT22;54756;51.140;6.952;2024-02-16T09:52:31;13.50;99.90
67974;DHT22;54756;51.140;6.952;2024-02-16T09:54:32;13.60;99.90
67974;DHT22;54756;51.140;6.952;2024-02-16T09:56:34;13.60;99.90
67974;DHT22;54756;51.140;6.952;2024-02-16T09:58:35;13.60;99.90
67974;DHT22;54756;51.140;6.952;2024-02-16T10:00:36;13.60;99.90
67974;DHT22;54756;51.140;6.952;2024-02-16T10:02:44;13.70;99.90
67974;DHT22;54756;51.140;6.952;2024-02-16T10:04:44;13.70;99.90
67974;DHT22;54756;51.140;6.952;2024-02-16T10:06:46;13.70;99.90
67974;DHT22;54756;51.140;6.952;2024-02-16T10:08:52;13.70;99.90
67974;DHT22;54756;51.140;6.952;2024-02-16T10:11:01;13.70;99.90
67974;DHT22;54756;51.140;6.952;2024-02-16T10:13:01;13.70;99.90
67974;DHT22;54756;51.140;6.952;2024-02-16T10:15:03;13.70;99.90
67974;DHT22;54756;51.140;6.952;2024-02-16T10:17:06;13.70;99.90
67974;DHT22;54756;51.140;6.952;2024-02-16T10:19:08;13.80;99.90
67974;DHT22;54756;51.140;6.952;2024-02-16T10:21:10;13.80;99.90
67974;DHT22;54756;51.140;6.952;2024-02-16T10:23:11;13.80;99.90
67974;DHT22;54756;51.140;6.952;2024-02-16T10:25:12;13.80;99.90
67974;DHT22;54756;51.140;6.952;2024-02-16T10:27:15;13.80;99.90
67974;DHT22;54756;51.140;6.952;2024-02-16T10:29:19;13.80;99.90
67974;DHT22;54756;51.140;6.952;2024-02-16T10:31:22;13.80;99.90
67974;DHT22;54756;51.140;6.952;2024-02-16T10:33:28;13.80;99.90
67974;DHT22;54756;51.140;6.952;2024-02-16T10:35:34;13.80;99.90
67974;DHT22;54756;51.140;6.952;2024-02-16T10:37:34;13.90;99.90
67974;DHT22;54756;51.140;6.952;2024-02-16T10:39:35;13.90;99.90
67974;DHT22;54756;51.140;6.952;2024-02-16T10:41:40;13.90;99.90
67974;DHT22;54756;51.140;6.952;2024-02-16T10:43:41;13.90;99.90
67974;DHT22;54756;51.140;6.952;2024-02-16T10:45:42;13.90;99.90
67974;DHT22;54756;51.140;6.952;2024-02-16T10:47:44;13.90;99.90
67974;DHT22;54756;51.140;6.952;2024-02-16T10:49:45;13.90;99.90
67974;DHT22;54756;51.140;6.952;2024-02-16T10:51:48;13.90;99.90
67974;DHT22;54756;51.140;6.952;2024-02-16T10:53:54;13.90;99.90
67974;DHT22;54756;51.140;6.952;2024-02-16T10:55:57;13.90;99.90
67974;DHT22;54756;51.140;6.952;2024-02-16T10:58:00;13.90;99.90
67974;DHT22;54756;51.140;6.952;2024-02-16T11:00:00;13.90;99.90
67974;DHT22;54756;51.140;6.952;2024-02-16T11:02:07;13.90;99.90
67974;DHT22;54756;51.140;6.952;2024-02-16T11:04:12;13.90;99.90
67974;DHT22;54756;51.140;6.952;2024-02-16T11:06:16;13.90;99.90
67974;DHT22;54756;51.140;6.952;2024-02-16T11:08:19;13.90;99.90
67974;DHT22;54756;51.140;6.952;2024-02-16T11:10:20;13.90;99.90
67974;DHT22;54756;51.140;6.952;2024-02-16T11:12:22;13.90;99.90
67974;DHT22;54756;51.140;6.952;2024-02-16T11:14:22;14.00;99.90
67974;DHT22;54756;51.140;6.952;2024-02-16T11:16:24;13.90;99.90
67974;DHT22;54756;51.140;6.952;2024-02-16T11:18:25;13.90;99.90
67974;DHT22;54756;51.140;6.952;2024-02-16T11:20:26;13.90;99.90
67974;DHT22;54756;51.140;6.952;2024-02-16T11:22:28;13.90;99.90
67974;DHT22;54756;51.140;6.952;2024-02-16T11:24:32;13.90;99.90
67974;DHT22;54756;51.140;6.952;2024-02-16T11:26:42;13.90;99.90
67974;DHT22;54756;51.140;6.952;2024-02-16T11:28:43;13.90;99.90
67974;DHT22;54756;51.140;6.952;2024-02-16T11:30:45;13.90;99.90
67974;DHT22;54756;51.140;6.952;2024-02-16T11:32:46;13.90;99.90
67974;DHT22;54756;51.140;6.952;2024-02-16T11:34:47;13.90;99.90
67974;DHT22;54756;51.140;6.952;2024-02-16T11:36:47;13.90;99.90
67974;DHT22;54756;51.140;6.952;2024-02-16T11:38:48;13.90;99.90
67974;DHT22;54756;51.140;6.952;2024-02-16T11:41:03;13.90;99.90
67974;DHT22;54756;51.140;6.952;2024-02-16T11:43:04;13.90;99.90
67974;DHT22;54756;51.140;6.952;2024-02-16T11:45:05;13.90;99.90
67974;DHT22;54756;51.140;6.952;2024-02-16T11:47:08;13.90;99.90
67974;DHT22;54756;51.140;6.952;2024-02-16T11:49:12;13.90;99.90
67974;DHT22;54756;51.140;6.952;2024-02-16T11:51:15;13.90;99.90
67974;DHT22;54756;51.140;6.952;2024-02-16T11:53:18;13.90;99.90
67974;DHT22;54756;51.140;6.952;2024-02-16T11:55:19;13.90;99.90
67974;DHT22;54756;51.140;6.952;2024-02-16T11:57:20;13.90;99.90
67974;DHT22;54756;51.140;6.952;2024-02-16T11:59:21;13.80;99.90
67974;DHT22;54756;51.140;6.952;2024-02-16T12:01:21;13.90;99.90
67974;DHT22;54756;51.140;6.952;2024-02-16T12:03:23;13.80;99.90
67974;DHT22;54756;51.140;6.952;2024-02-16T12:05:24;13.80;99.90
67974;DHT22;54756;51.140;6.952;2024-02-16T12:07:28;13.80;99.90
67974;DHT22;54756;51.140;6.952;2024-02-16T12:09:29;13.80;99.90
67974;DHT22;54756;51.140;6.952;2024-02-16T12:11:32;13.80;99.90
67974;DHT22;54756;51.140;6.952;2024-02-16T12:13:32;13.80;99.90
67974;DHT22;54756;51.140;6.952;2024-02-16T12:15:33;13.80;99.90
67974;DHT22;54756;51.140;6.952;2024-02-16T12:17:34;13.80;99.90
67974;DHT22;54756;51.140;6.952;2024-02-16T12:19:35;13.80;99.90
67974;DHT22;54756;51.140;6.952;2024-02-16T12:21:35;13.80;99.90
67974;DHT22;54756;51.140;6.952;2024-02-16T12:23:36;13.80;99.90
67974;DHT22;54756;51.140;6.952;2024-02-16T12:25:36;13.80;99.90
67974;DHT22;54756;51.140;6.952;2024-02-16T12:27:37;13.80;99.90
67974;DHT22;54756;51.140;6.952;2024-02-16T12:29:38;13.80;99.90
67974;DHT22;54756;51.140;6.952;2024-02-16T12:31:40;13.80;99.90
67974;DHT22;54756;51.140;6.952;2024-02-16T12:33:41;13.80;99.90
67974;DHT22;54756;51.140;6.952;2024-02-16T12:35:42;13.80;99.90
67974;DHT22;54756;51.140;6.952;2024-02-16T12:37:43;13.80;99.90
67974;DHT22;54756;51.140;6.952;2024-02-16T12:39:43;13.80;99.90
67974;DHT22;54756;51.140;6.952;2024-02-16T12:41:46;13.80;99.90
67974;DHT22;54756;51.140;6.952;2024-02-16T12:43:47;13.80;99.90
67974;DHT22;54756;51.140;6.952;2024-02-16T12:45:48;13.80;99.90